ADDS TAF Board (Experimental) INFO Settings

IDs: Format: Expanded Condensed

KSTL - St Louis/Lambert Int, MO, US

Issued at 2321 UTC 06 Mar 2015
Updated at: 0004 UTC 07 Mar 2015
Time2351Z 07/01Z 07/02Z 07/03Z 07/04Z 07/05Z 07/06Z 07/07Z 07/08Z 07/09Z 07/10Z 07/11Z 07/12Z 07/13Z
Type OBS PRVL PRVL PRVL PRVL PRVL PRVL PRVL PRVL PRVL PRVL PRVL PRVL PRVL
VIS 10 >6 >6 >6 >6 >6 >6 >6 >6 >6 >6 >6 >6 >6
CIG -- -- -- -- -- -- -- -- -- -- -- -- -- --
Cover FEW SKC SKC SKC SKC SKC SKC SKC SKC SKC SKC SKC SKC SKC
FltCat VFR VFR VFR VFR VFR VFR VFR VFR VFR VFR VFR VFR VFR VFR
WX -- -- -- -- -- -- -- -- -- -- -- -- -- --
WDir 200 220 220 220 220 220 220 220 220 220 220 220 220 220
WSpd 8 8 8 8 8 8 8 8 8 8 8 8 8 8
WGst -- -- -- -- -- -- -- -- -- -- -- -- -- --
R06/24
XWnd -5 -3 -3 -3 -3 -3 -3 -3 -3 -3 -3 -3 -3 -3
HWnd -6 -7 -7 -7 -7 -7 -7 -7 -7 -7 -7 -7 -7 -7
R11/29
XWnd -8 -8 -8 -8 -8 -8 -8 -8 -8 -8 -8 -8 -8 -8
HWnd 2 -1 -1 -1 -1 -1 -1 -1 -1 -1 -1 -1 -1 -1
R12/30
XWnd -8 -8 -8 -8 -8 -8 -8 -8 -8 -8 -8 -8 -8 -8
HWnd 2 -1 -1 -1 -1 -1 -1 -1 -1 -1 -1 -1 -1 -1

NOTE: TEMPO conditions in [brackets]. Keep in mind TEMPO conditions might be better (lower impact) than prevailing conditions.

Raw TAF
KSTL 062321Z 0700/0806 22008KT P6SM SKC
  FM071700 26011KT P6SM SKC
  FM080000 VRB05KT P6SM SKC


Raw METAR
KSTL 062351Z 20008KT 140V220 10SM FEW200 09/M05 A3026 RMK AO2 SLP259 T00891050 10106 20028 56008
KSTL 062251Z 21007KT 10SM CLR 11/M05 A3026 RMK AO2 SLP259 T01061050
KSTL 062151Z 22012KT 10SM CLR 11/M06 A3027 RMK AO2 SLP262 T01061056

METAR Board
Radar Display
Forecast Discussion

TAF Board Legend

Potential Impact
Threat None Slight Moderate High
Visibility (sm) ≥5.1 5.1>X≥3 3>X≥1 <1
Ceiling (100 ft) ≥30.1 30.1>X≥10 10>X≥5 <5
Wind Speed (kt) <10 10≤X<20 20≤X<30 ≥30
Wind Gust (kt) <15 15≤X<25 25≤X<35 ≥35
Weather No Wx Reported VCTS,-TS,-FZRA,SN TS,FZRA +TS,+FZRA,+SN